Central Virginia Flyers


Central Virginia Flyers is a 10 member flying club based in Richmond, VA at Hanover County Airport (KOFP). We own N787AT, a 1977 Cessna 172 with 180hp conversion. If you are interested in membership, please contact Brenton at [email protected]


Aviation Digital Data Service (ADDS)

Output produced by METARs form (0822 UTC 29 September 2016)
found at http://aviationweather.gov/adds/metars/
 
KRIC 290811Z 11006KT 10SM FEW004 SCT015 OVC140 19/19 A3000 RMK AO2 T01940189 $
KRIC 290816Z 2908/3006 10008KT 5SM -SHRA BR SCT007 OVC015 
     FM291000 11007KT P6SM VCSH OVC015 
     FM291400 09010KT P6SM VCSH OVC030 
     FM291600 08008KT 4SM -SHRA BR OVC030